createdAt,value
2018-04-22T00:02:02.873Z,18.20
2018-04-22T00:04:30.396Z,18.20
2018-04-22T00:06:58.679Z,18.20
2018-04-22T00:09:26.953Z,18.30
2018-04-22T00:11:55.270Z,18.30
2018-04-22T00:14:22.787Z,18.30
2018-04-22T00:16:50.281Z,18.40
2018-04-22T00:19:17.785Z,18.40
2018-04-22T00:21:45.294Z,18.40
2018-04-22T00:24:12.840Z,18.40
2018-04-22T00:26:40.352Z,18.50
2018-04-22T00:29:07.858Z,18.50
2018-04-22T00:31:35.369Z,18.50
2018-04-22T00:34:02.865Z,18.50
2018-04-22T00:36:31.133Z,18.50
2018-04-22T00:38:58.633Z,18.50
2018-04-22T00:41:26.132Z,18.50
2018-04-22T00:43:53.638Z,18.50
2018-04-22T00:46:21.138Z,18.50
2018-04-22T00:48:48.629Z,18.50
2018-04-22T00:51:16.895Z,18.50
2018-04-22T00:53:56.307Z,18.50
2018-04-22T00:56:23.805Z,18.50
2018-04-22T00:58:52.064Z,18.50
2018-04-22T01:01:19.573Z,18.40
2018-04-22T01:03:47.133Z,18.40
2018-04-22T01:06:14.639Z,18.40
2018-04-22T01:08:43.660Z,18.40
2018-04-22T01:11:11.941Z,18.40
2018-04-22T01:13:39.458Z,18.40
2018-04-22T01:16:06.975Z,18.40
2018-04-22T01:18:34.477Z,18.40
2018-04-22T01:21:01.984Z,18.30
2018-04-22T01:23:29.484Z,18.30
2018-04-22T01:25:56.985Z,18.30
2018-04-22T01:28:25.258Z,18.40
2018-04-22T01:30:53.542Z,18.30
2018-04-22T01:33:21.833Z,18.30
2018-04-22T01:35:49.337Z,18.30
2018-04-22T01:38:16.837Z,18.20
2018-04-22T01:40:45.117Z,18.30
2018-04-22T01:43:12.640Z,18.20
2018-04-22T01:45:40.146Z,18.30
2018-04-22T01:48:07.669Z,18.20
2018-04-22T01:50:35.161Z,18.30
2018-04-22T01:53:02.678Z,18.20
2018-04-22T01:55:30.202Z,18.20
2018-04-22T01:57:57.713Z,18.20
2018-04-22T02:00:25.995Z,18.10
2018-04-22T02:02:54.273Z,18.10
2018-04-22T02:05:22.550Z,18.10
2018-04-22T02:07:50.825Z,18.10
2018-04-22T02:10:19.102Z,18.00
2018-04-22T02:12:47.369Z,18.00
2018-04-22T02:15:15.638Z,18.00
2018-04-22T02:17:43.138Z,18.00
2018-04-22T02:20:10.641Z,18.00
2018-04-22T02:22:39.666Z,17.90
2018-04-22T02:25:07.937Z,17.90
2018-04-22T02:27:36.218Z,17.90
2018-04-22T02:30:04.492Z,17.90
2018-04-22T02:32:32.770Z,17.90
2018-04-22T02:35:01.050Z,17.90
2018-04-22T02:37:29.326Z,17.80
2018-04-22T02:39:57.610Z,17.80
2018-04-22T02:42:25.893Z,17.80
2018-04-22T02:44:53.397Z,17.80
2018-04-22T02:47:20.922Z,17.90
2018-04-22T02:49:48.433Z,17.90
2018-04-22T02:52:15.939Z,17.80
2018-04-22T02:54:43.450Z,17.80
2018-04-22T02:57:10.952Z,17.80
2018-04-22T02:59:38.458Z,17.70
2018-04-22T03:02:05.971Z,17.70
2018-04-22T03:04:33.485Z,17.70
2018-04-22T03:07:01.758Z,17.70
2018-04-22T03:09:30.028Z,17.70
2018-04-22T03:11:57.529Z,17.70
2018-04-22T03:14:25.046Z,17.70
2018-04-22T03:16:52.545Z,17.70
2018-04-22T03:19:20.061Z,17.60
2018-04-22T03:21:47.585Z,17.60
2018-04-22T03:24:15.090Z,17.60
2018-04-22T03:26:43.356Z,17.60
2018-04-22T03:29:10.862Z,17.60
2018-04-22T03:31:38.381Z,17.60
2018-04-22T03:34:06.646Z,17.50
2018-04-22T03:36:35.682Z,17.50
2018-04-22T03:39:03.199Z,17.50
2018-04-22T03:41:30.705Z,17.50
2018-04-22T03:43:58.214Z,17.50
2018-04-22T03:46:25.714Z,17.50
2018-04-22T03:48:53.245Z,17.50
2018-04-22T03:51:21.529Z,17.50
2018-04-22T03:53:49.818Z,17.50
2018-04-22T03:56:18.090Z,17.50
2018-04-22T03:58:46.374Z,17.40
2018-04-22T04:01:14.642Z,17.40
2018-04-22T04:03:42.927Z,17.40
2018-04-22T04:06:10.429Z,17.30
2018-04-22T04:08:37.937Z,17.30
2018-04-22T04:11:06.209Z,17.30
2018-04-22T04:13:34.485Z,17.30
2018-04-22T04:16:02.770Z,17.40
2018-04-22T04:32:01.020Z,17.20
2018-04-22T04:34:28.542Z,17.10
2018-04-22T04:36:56.045Z,17.20
2018-04-22T04:39:24.321Z,17.10
2018-04-22T04:41:52.618Z,17.10
2018-04-22T04:44:20.145Z,17.10
2018-04-22T04:46:47.647Z,17.10
2018-04-22T04:49:15.169Z,17.00
2018-04-22T04:51:42.689Z,17.00
2018-04-22T04:54:10.193Z,17.00
2018-04-22T04:56:38.461Z,17.10
2018-04-22T04:59:05.981Z,17.00
2018-04-22T05:01:33.483Z,17.10
2018-04-22T05:04:01.761Z,17.10
2018-04-22T05:06:30.029Z,17.10
2018-04-22T05:08:58.301Z,17.10
2018-04-22T05:11:25.804Z,17.10
2018-04-22T05:13:53.309Z,17.10
2018-04-22T05:16:20.837Z,17.10
2018-04-22T05:18:48.367Z,17.10
2018-04-22T05:21:15.869Z,17.20
2018-04-22T05:23:43.396Z,17.20
2018-04-22T05:26:10.898Z,17.20
2018-04-22T05:28:38.402Z,17.30
2018-04-22T05:31:05.926Z,17.40
2018-04-22T05:33:33.425Z,17.60
2018-04-22T05:36:00.968Z,17.70
2018-04-22T05:38:29.261Z,17.90
2018-04-22T05:40:56.763Z,17.90
2018-04-22T05:43:25.658Z,18.20
2018-04-22T05:45:53.190Z,18.20
2018-04-22T05:48:20.697Z,18.30
2018-04-22T05:50:48.974Z,18.50
2018-04-22T05:53:17.258Z,18.60
2018-04-22T05:55:45.537Z,18.70
2018-04-22T05:58:13.830Z,18.80
2018-04-22T06:00:41.334Z,18.80
2018-04-22T06:03:08.838Z,19.00
2018-04-22T06:05:37.101Z,19.10
2018-04-22T06:08:05.381Z,19.20
2018-04-22T06:10:33.661Z,19.20
2018-04-22T06:13:01.942Z,19.30
2018-04-22T06:15:30.201Z,19.30
2018-04-22T06:17:58.481Z,19.30
2018-04-22T06:20:26.011Z,19.30
2018-04-22T06:22:53.554Z,19.40
2018-04-22T06:25:21.044Z,19.40
2018-04-22T06:27:48.542Z,19.50
2018-04-22T06:30:16.053Z,19.50
2018-04-22T06:32:43.557Z,19.50
2018-04-22T06:35:11.065Z,19.60
2018-04-22T06:37:38.562Z,19.60
2018-04-22T06:40:06.846Z,19.80
2018-04-22T06:42:35.113Z,19.90
2018-04-22T06:45:03.389Z,19.90
2018-04-22T06:47:31.666Z,20.00
2018-04-22T06:49:59.945Z,20.00
2018-04-22T06:52:28.229Z,20.10
2018-04-22T06:54:55.759Z,20.00
2018-04-22T06:57:24.035Z,20.10
2018-04-22T06:59:53.794Z,20.10
2018-04-22T07:02:21.310Z,20.10
2018-04-22T07:04:48.817Z,20.20
2018-04-22T07:07:16.329Z,20.30
2018-04-22T07:09:43.827Z,20.40
2018-04-22T07:12:11.337Z,20.50
2018-04-22T07:14:38.830Z,20.50
2018-04-22T07:17:06.353Z,20.60
2018-04-22T07:19:33.886Z,20.60
2018-04-22T07:22:01.385Z,20.70
2018-04-22T07:24:29.673Z,20.70
2018-04-22T07:26:57.938Z,20.70
2018-04-22T07:29:26.206Z,20.80
2018-04-22T07:31:53.707Z,20.80
2018-04-22T07:34:21.209Z,20.80
2018-04-22T07:36:49.478Z,20.90
2018-04-22T07:39:16.993Z,20.90
2018-04-22T07:41:44.510Z,21.00
2018-04-22T07:44:12.005Z,21.00
2018-04-22T07:46:39.501Z,21.10
2018-04-22T07:49:07.001Z,21.20
2018-04-22T07:51:35.277Z,21.30
2018-04-22T07:54:03.537Z,21.40
2018-04-22T07:56:31.037Z,21.40
2018-04-22T07:58:58.554Z,21.50
2018-04-22T08:01:26.850Z,21.50
2018-04-22T08:03:55.158Z,21.60
2018-04-22T08:06:22.658Z,21.60
2018-04-22T08:08:50.921Z,21.70
2018-04-22T08:11:18.450Z,21.60
2018-04-22T08:13:45.988Z,21.70
2018-04-22T08:16:14.314Z,21.80
2018-04-22T08:18:41.785Z,21.70
2018-04-22T08:21:10.077Z,21.90
2018-04-22T08:23:37.584Z,21.90
2018-04-22T08:26:05.101Z,22.00
2018-04-22T08:28:33.390Z,22.10
2018-04-22T08:31:01.695Z,22.20
2018-04-22T08:46:24.783Z,22.60
2018-04-22T08:48:52.305Z,22.60
2018-04-22T08:51:19.803Z,22.70
2018-04-22T08:53:47.311Z,22.70
2018-04-22T08:56:14.821Z,22.70
2018-04-22T08:58:42.337Z,22.70
2018-04-22T09:01:09.837Z,22.80
2018-04-22T09:03:37.340Z,22.80
2018-04-22T09:06:04.833Z,23.00
2018-04-22T09:08:32.338Z,23.10
2018-04-22T09:11:00.618Z,23.10
2018-04-22T09:13:28.891Z,23.10
2018-04-22T09:15:57.165Z,25.80
2018-04-22T09:18:25.433Z,29.40
2018-04-22T09:20:53.695Z,33.20
2018-04-22T09:23:21.221Z,33.00
2018-04-22T09:25:48.725Z,32.90
2018-04-22T09:28:16.998Z,31.90
2018-04-22T09:30:45.285Z,34.60
2018-04-22T09:33:13.627Z,36.20
2018-04-22T09:35:41.079Z,36.10
2018-04-22T09:38:08.592Z,38.30
2018-04-22T09:40:36.142Z,40.60
2018-04-22T09:43:04.457Z,44.60
2018-04-22T09:45:34.055Z,43.60
2018-04-22T09:48:02.289Z,43.50
2018-04-22T09:50:30.557Z,39.10
2018-04-22T09:52:58.062Z,39.00
2018-04-22T09:55:25.565Z,37.30
2018-04-22T09:57:53.094Z,35.90
2018-04-22T10:00:26.233Z,34.80
2018-04-22T10:02:55.334Z,32.20
2018-04-22T10:05:23.617Z,31.20
2018-04-22T10:07:51.889Z,29.90
2018-04-22T10:10:20.154Z,29.00
2018-04-22T10:12:48.446Z,28.70
2018-04-22T10:15:16.725Z,28.50
2018-04-22T10:17:45.019Z,28.00
2018-04-22T10:20:12.521Z,27.90
2018-04-22T10:22:40.049Z,27.70
2018-04-22T10:25:07.551Z,27.50
2018-04-22T10:27:35.053Z,27.30
2018-04-22T10:30:02.565Z,27.30
2018-04-22T10:32:30.079Z,27.00
2018-04-22T10:34:57.594Z,27.00
2018-04-22T10:37:25.878Z,26.80
2018-04-22T10:39:54.141Z,26.90
2018-04-22T10:42:21.981Z,27.00
2018-04-22T10:44:49.483Z,27.00
2018-04-22T10:47:17.747Z,27.00
2018-04-22T10:49:45.261Z,27.00
2018-04-22T10:52:12.762Z,26.80
2018-04-22T10:54:40.269Z,26.70
2018-04-22T10:57:07.786Z,26.60
2018-04-22T10:59:36.102Z,26.50
2018-04-22T11:02:03.676Z,26.50
2018-04-22T11:04:31.142Z,26.50
2018-04-22T11:06:58.649Z,26.50
2018-04-22T11:09:26.913Z,26.70
2018-04-22T11:11:55.189Z,26.80
2018-04-22T11:14:22.807Z,26.80
2018-04-22T11:16:50.340Z,27.10
2018-04-22T11:19:17.841Z,27.40
2018-04-22T11:21:45.354Z,27.70
2018-04-22T11:24:12.870Z,27.80
2018-04-22T11:26:41.141Z,28.10
2018-04-22T11:29:08.633Z,28.00
2018-04-22T11:31:36.897Z,28.40
2018-04-22T11:34:05.177Z,28.40
2018-04-22T11:36:33.461Z,28.20
2018-04-22T11:39:01.726Z,28.00
2018-04-22T11:41:30.011Z,28.10
2018-04-22T11:43:58.301Z,28.00
2018-04-22T11:46:25.806Z,28.00
2018-04-22T11:48:53.305Z,28.00
2018-04-22T11:51:21.584Z,27.90
2018-04-22T11:53:49.872Z,28.20
2018-04-22T11:56:17.376Z,28.10
2018-04-22T11:58:44.891Z,28.40
2018-04-22T12:01:12.392Z,28.60
2018-04-22T12:03:39.916Z,28.80
2018-04-22T12:06:07.446Z,29.00
2018-04-22T12:08:35.721Z,29.60
2018-04-22T12:11:03.981Z,29.50
2018-04-22T12:13:31.498Z,29.50
2018-04-22T12:15:58.994Z,29.40
2018-04-22T12:18:26.493Z,29.50
2018-04-22T12:20:54.003Z,29.10
2018-04-22T12:23:21.526Z,28.80
2018-04-22T12:25:49.029Z,28.60
2018-04-22T12:28:16.548Z,28.70
2018-04-22T12:30:44.101Z,28.80
2018-04-22T12:33:11.605Z,29.20
2018-04-22T12:35:39.198Z,29.50
2018-04-22T12:38:07.481Z,30.10
2018-04-22T12:40:34.986Z,30.00
2018-04-22T12:43:02.494Z,30.20
2018-04-22T12:45:30.011Z,30.20
2018-04-22T12:47:57.509Z,29.90
2018-04-22T12:50:25.784Z,29.70
2018-04-22T12:52:54.085Z,29.40
2018-04-22T12:55:21.587Z,29.40
2018-04-22T12:57:49.093Z,29.20
2018-04-22T13:00:16.619Z,29.00
2018-04-22T13:02:44.125Z,28.90
2018-04-22T13:05:11.628Z,28.80
2018-04-22T13:07:39.141Z,28.80
2018-04-22T13:10:06.678Z,28.70
2018-04-22T13:12:34.185Z,28.80
2018-04-22T13:15:01.679Z,28.80
2018-04-22T13:17:29.949Z,29.10
2018-04-22T13:19:58.213Z,29.50
2018-04-22T13:22:25.721Z,29.50
2018-04-22T13:24:53.235Z,29.80
2018-04-22T13:27:20.741Z,30.10
2018-04-22T13:29:48.258Z,30.40
2018-04-22T13:32:15.765Z,30.90
2018-04-22T13:34:43.269Z,31.30
2018-04-22T13:37:11.537Z,32.00
2018-04-22T13:39:39.154Z,32.00
2018-04-22T13:42:06.654Z,32.30
2018-04-22T13:44:34.171Z,32.50
2018-04-22T13:47:01.668Z,32.80
2018-04-22T13:49:29.187Z,33.10
2018-04-22T13:51:56.681Z,33.10
2018-04-22T13:54:24.326Z,32.80
2018-04-22T13:56:51.802Z,32.50
2018-04-22T13:59:19.290Z,32.30
2018-04-22T14:01:47.541Z,32.40
2018-04-22T14:04:15.034Z,32.40
2018-04-22T14:06:43.301Z,31.60
2018-04-22T14:09:11.569Z,31.10
2018-04-22T14:11:39.833Z,30.80
2018-04-22T14:14:07.332Z,30.80
2018-04-22T14:16:34.828Z,30.20
2018-04-22T14:19:02.359Z,29.90
2018-04-22T14:21:29.857Z,29.60
2018-04-22T14:23:57.350Z,29.60
2018-04-22T14:26:25.629Z,29.90
2018-04-22T14:28:53.901Z,30.10
2018-04-22T14:31:22.169Z,30.50
2018-04-22T14:33:50.437Z,30.50
2018-04-22T14:36:17.937Z,30.50
2018-04-22T14:38:45.453Z,30.20
2018-04-22T14:41:12.941Z,29.90
2018-04-22T14:43:46.521Z,29.60
2018-04-22T14:46:14.790Z,29.50
2018-04-22T14:48:55.013Z,29.90
2018-04-22T14:51:22.511Z,29.80
2018-04-22T14:53:50.785Z,30.30
2018-04-22T14:56:19.057Z,30.50
2018-04-22T14:58:48.088Z,30.70
2018-04-22T15:01:15.593Z,30.70
2018-04-22T15:03:43.091Z,30.80
2018-04-22T15:06:10.597Z,30.90
2018-04-22T15:08:38.090Z,31.00
2018-04-22T15:11:05.623Z,31.20
2018-04-22T15:13:33.134Z,31.50
2018-04-22T15:16:00.635Z,31.90
2018-04-22T15:18:28.134Z,32.30
2018-04-22T15:20:56.410Z,32.70
2018-04-22T15:23:24.693Z,32.70
2018-04-22T15:25:52.956Z,32.50
2018-04-22T15:28:21.213Z,32.70
2018-04-22T15:30:48.712Z,32.70
2018-04-22T15:33:16.226Z,32.80
2018-04-22T15:35:43.846Z,32.70
2018-04-22T15:38:11.341Z,32.80
2018-04-22T15:40:38.837Z,32.80
2018-04-22T15:43:07.115Z,33.50
2018-04-22T15:45:35.416Z,33.60
2018-04-22T15:48:02.921Z,33.60
2018-04-22T15:50:30.645Z,33.70
2018-04-22T15:52:58.137Z,33.70
2018-04-22T15:55:25.758Z,33.70
2018-04-22T15:57:53.282Z,33.80
2018-04-22T16:00:21.553Z,34.20
2018-04-22T16:02:49.051Z,34.20
2018-04-22T16:05:16.716Z,34.30
2018-04-22T16:07:44.279Z,34.10
2018-04-22T16:10:11.849Z,33.70
2018-04-22T16:12:39.354Z,33.20
2018-04-22T16:15:07.621Z,32.50
2018-04-22T16:17:35.138Z,32.40
2018-04-22T16:20:02.673Z,32.40
2018-04-22T16:22:30.209Z,32.40
2018-04-22T16:24:58.482Z,32.50
2018-04-22T16:27:26.797Z,32.30
2018-04-22T16:29:54.297Z,32.30
2018-04-22T16:32:21.918Z,32.00
2018-04-22T16:34:49.446Z,31.60
2018-04-22T16:37:17.713Z,30.90
2018-04-22T16:39:46.001Z,30.50
2018-04-22T16:42:14.273Z,30.20
2018-04-22T16:44:42.542Z,30.00
2018-04-22T16:47:10.805Z,29.80
2018-04-22T16:49:38.309Z,29.80
2018-04-22T16:52:05.810Z,29.60
2018-04-22T16:54:33.338Z,29.30
2018-04-22T16:57:00.835Z,29.00
2018-04-22T16:59:28.344Z,28.80
2018-04-22T17:01:55.882Z,28.50
2018-04-22T17:04:24.152Z,28.10
2018-04-22T17:06:52.436Z,27.90
2018-04-22T17:09:20.721Z,27.80
2018-04-22T17:11:48.991Z,27.50
2018-04-22T17:14:17.267Z,27.30
2018-04-22T17:16:45.553Z,27.20
2018-04-22T17:19:13.082Z,27.10
2018-04-22T17:21:40.582Z,27.00
2018-04-22T17:24:08.138Z,26.90
2018-04-22T17:26:35.657Z,26.80
2018-04-22T17:29:03.154Z,26.60
2018-04-22T17:31:30.682Z,26.50
2018-04-22T17:33:59.230Z,26.10
2018-04-22T17:36:26.763Z,26.10
2018-04-22T17:38:54.293Z,26.00
2018-04-22T17:41:22.566Z,25.60
2018-04-22T17:43:50.837Z,25.40
2018-04-22T17:46:19.101Z,25.20
2018-04-22T17:48:46.603Z,25.20
2018-04-22T17:51:14.120Z,25.00
2018-04-22T17:53:41.634Z,24.90
2018-04-22T17:56:09.148Z,24.70
2018-04-22T17:58:37.437Z,24.30
2018-04-22T18:01:05.709Z,24.20
2018-04-22T18:03:33.978Z,24.10
2018-04-22T18:06:02.265Z,24.00
2018-04-22T18:08:30.541Z,23.80
2018-04-22T18:10:58.816Z,23.70
2018-04-22T18:13:27.084Z,23.50
2018-04-22T18:15:55.362Z,23.40
2018-04-22T18:18:23.637Z,23.30
2018-04-22T18:20:51.901Z,23.30
2018-04-22T18:23:19.418Z,23.20
2018-04-22T18:25:46.930Z,23.10
2018-04-22T18:28:15.207Z,23.00
2018-04-22T18:30:43.478Z,22.90
2018-04-22T18:33:11.765Z,22.90
2018-04-22T18:35:40.060Z,22.90
2018-04-22T18:38:07.579Z,22.80
2018-04-22T18:40:35.093Z,22.90
2018-04-22T18:43:02.617Z,22.80
2018-04-22T18:45:30.889Z,22.90
2018-04-22T18:47:59.176Z,22.80
2018-04-22T18:50:26.714Z,22.80
2018-04-22T18:52:54.325Z,22.80
2018-04-22T18:55:21.826Z,22.80
2018-04-22T18:57:49.355Z,22.80
2018-04-22T19:00:16.857Z,22.80
2018-04-22T19:02:45.153Z,22.70
2018-04-22T19:05:13.459Z,22.70
2018-04-22T19:07:41.013Z,22.60
2018-04-22T19:10:08.525Z,22.60
2018-04-22T19:12:36.825Z,22.50
2018-04-22T19:15:05.102Z,22.50
2018-04-22T19:17:33.381Z,22.40
2018-04-22T19:20:01.653Z,22.40
2018-04-22T19:22:29.937Z,22.40
2018-04-22T19:24:57.475Z,22.40
2018-04-22T19:27:25.741Z,22.30
2018-04-22T19:29:53.247Z,22.20
2018-04-22T19:32:20.790Z,22.30
2018-04-22T19:34:49.065Z,22.10
2018-04-22T19:37:16.586Z,22.10
2018-04-22T19:39:44.861Z,21.90
2018-04-22T19:42:12.362Z,21.90
2018-04-22T19:44:39.937Z,21.80
2018-04-22T19:47:07.452Z,21.80
2018-04-22T19:49:35.751Z,21.60
2018-04-22T19:52:04.017Z,21.60
2018-04-22T19:54:32.295Z,21.50
2018-04-22T19:57:00.573Z,21.40
2018-04-22T19:59:28.845Z,21.30
2018-04-22T20:01:57.115Z,21.20
2018-04-22T20:04:25.431Z,21.20
2018-04-22T20:06:52.944Z,21.10
2018-04-22T20:09:21.227Z,21.00
2018-04-22T20:11:49.497Z,21.00
2018-04-22T20:14:16.997Z,21.00
2018-04-22T20:16:44.505Z,21.00
2018-04-22T20:19:12.064Z,21.00
2018-04-22T20:21:39.562Z,21.00
2018-04-22T20:24:07.071Z,21.00
2018-04-22T20:26:34.574Z,21.00
2018-04-22T20:29:02.839Z,21.00
2018-04-22T20:31:31.117Z,21.00
2018-04-22T20:33:59.385Z,21.10
2018-04-22T20:36:27.665Z,21.10
2018-04-22T20:38:55.957Z,21.20
2018-04-22T20:41:24.504Z,21.20
2018-04-22T20:43:52.006Z,21.10
2018-04-22T20:46:19.525Z,21.10
2018-04-22T20:48:47.029Z,21.10
2018-04-22T20:51:14.554Z,21.00
2018-04-22T20:53:42.825Z,20.90
2018-04-22T20:56:10.320Z,20.80
2018-04-22T20:58:37.838Z,20.80
2018-04-22T21:01:05.426Z,20.70
2018-04-22T21:03:33.686Z,20.60
2018-04-22T21:06:01.975Z,20.50
2018-04-22T21:08:30.251Z,20.40
2018-04-22T21:10:58.518Z,20.40
2018-04-22T21:13:26.793Z,20.40
2018-04-22T21:15:55.082Z,20.30
2018-04-22T21:18:23.363Z,20.30
2018-04-22T21:20:51.642Z,20.20
2018-04-22T21:23:19.909Z,20.20
2018-04-22T21:25:48.178Z,20.20
2018-04-22T21:28:16.478Z,20.10
2018-04-22T21:30:44.750Z,20.00
2018-04-22T21:33:13.021Z,20.00
2018-04-22T21:35:41.301Z,19.90
2018-04-22T21:38:09.585Z,19.90
2018-04-22T21:40:37.086Z,19.90
2018-04-22T21:43:04.589Z,19.80
2018-04-22T21:45:32.853Z,19.80
2018-04-22T21:48:01.138Z,19.70
2018-04-22T21:50:29.447Z,19.70
2018-04-22T21:52:56.945Z,19.70
2018-04-22T21:55:24.448Z,19.60
2018-04-22T21:57:51.949Z,19.60
2018-04-22T22:00:19.469Z,19.50
2018-04-22T22:02:46.970Z,19.50
2018-04-22T22:05:14.466Z,19.50
2018-04-22T22:07:42.729Z,19.40
2018-04-22T22:10:10.241Z,19.40
2018-04-22T22:12:37.741Z,19.40
2018-04-22T22:15:05.258Z,19.40
2018-04-22T22:17:32.766Z,19.40
2018-04-22T22:20:00.267Z,19.40
2018-04-22T22:22:27.786Z,19.40
2018-04-22T22:24:56.051Z,19.40
2018-04-22T22:27:23.567Z,19.30
2018-04-22T22:29:51.063Z,19.30
2018-04-22T22:32:18.565Z,19.20
2018-04-22T22:34:46.078Z,19.10
2018-04-22T22:37:13.570Z,19.10
2018-04-22T22:39:41.845Z,19.00
2018-04-22T22:42:10.107Z,18.90
2018-04-22T22:44:38.374Z,18.90
2018-04-22T22:47:05.873Z,18.90
2018-04-22T22:49:33.371Z,18.80
2018-04-22T22:52:00.882Z,18.80
2018-04-22T22:54:28.385Z,18.70
2018-04-22T22:56:55.894Z,18.60
2018-04-22T22:59:23.406Z,18.50
2018-04-22T23:01:50.924Z,18.50
2018-04-22T23:04:18.425Z,18.40
2018-04-22T23:06:45.947Z,18.40
2018-04-22T23:09:13.449Z,18.40
2018-04-22T23:11:40.973Z,18.40
2018-04-22T23:14:08.489Z,18.30
2018-04-22T23:16:36.337Z,18.20
2018-04-22T23:19:03.837Z,18.10
2018-04-22T23:21:30.899Z,18.20
2018-04-22T23:23:58.424Z,18.10
2018-04-22T23:26:26.690Z,18.00
2018-04-22T23:28:54.969Z,18.00
2018-04-22T23:31:23.257Z,17.90
2018-04-22T23:33:51.541Z,17.90
2018-04-22T23:36:19.062Z,17.90
2018-04-22T23:38:46.112Z,17.80
2018-04-22T23:41:13.177Z,17.80
2018-04-22T23:43:41.452Z,17.70
2018-04-22T23:46:09.745Z,17.70
2018-04-22T23:48:38.014Z,17.70
2018-04-22T23:51:06.290Z,17.60
2018-04-22T23:53:34.562Z,17.60
2018-04-22T23:56:01.625Z,17.60
2018-04-22T23:58:29.137Z,17.50
